createdAt,value
2023-06-21T00:01:41.512Z,24.21
2023-06-21T00:04:08.872Z,24.22
2023-06-21T00:06:35.942Z,24.22
2023-06-21T00:09:06.960Z,24.18
2023-06-21T00:11:34.244Z,24.20
2023-06-21T00:14:01.154Z,24.20
2023-06-21T00:16:27.858Z,24.19
2023-06-21T00:18:54.571Z,24.19
2023-06-21T00:21:21.321Z,24.17
2023-06-21T00:23:48.089Z,24.15
2023-06-21T00:26:14.757Z,24.07
2023-06-21T00:28:41.382Z,24.03
2023-06-21T00:31:09.918Z,23.95
2023-06-21T00:33:36.856Z,23.88
2023-06-21T00:36:03.776Z,23.85
2023-06-21T00:38:36.775Z,23.79
2023-06-21T00:41:07.066Z,23.77
2023-06-21T00:43:33.936Z,23.73
2023-06-21T00:46:01.527Z,23.70
2023-06-21T00:48:31.193Z,23.67
2023-06-21T00:50:58.506Z,23.62
2023-06-21T00:53:30.519Z,23.57
2023-06-21T00:55:57.658Z,23.54
2023-06-21T00:58:25.507Z,23.53
2023-06-21T01:00:52.484Z,23.46
2023-06-21T01:03:23.121Z,23.43
2023-06-21T01:06:13.403Z,23.44
2023-06-21T01:08:40.054Z,23.41
2023-06-21T01:11:29.268Z,23.34
2023-06-21T01:14:25.054Z,23.30
2023-06-21T01:16:54.781Z,23.29
2023-06-21T01:19:34.367Z,23.28
2023-06-21T01:22:09.988Z,23.28
2023-06-21T01:24:47.458Z,23.28
2023-06-21T01:28:03.733Z,23.29
2023-06-21T01:30:32.477Z,23.31
2023-06-21T01:33:00.739Z,23.28
2023-06-21T01:35:27.643Z,23.28
2023-06-21T01:37:54.517Z,23.24
2023-06-21T01:40:21.278Z,23.18
2023-06-21T01:42:47.928Z,23.19
2023-06-21T01:45:14.707Z,23.18
2023-06-21T01:47:44.368Z,23.18
2023-06-21T01:50:13.235Z,23.19
2023-06-21T01:52:41.270Z,23.14
2023-06-21T01:55:09.485Z,23.11
2023-06-21T01:57:36.805Z,23.06
2023-06-21T02:00:15.814Z,23.03
2023-06-21T02:02:46.852Z,22.96
2023-06-21T02:05:16.660Z,22.93
2023-06-21T02:07:46.646Z,22.89
2023-06-21T02:10:15.565Z,22.86
2023-06-21T02:12:43.392Z,22.80
2023-06-21T02:15:11.900Z,22.78
2023-06-21T02:17:38.514Z,22.74
2023-06-21T02:20:12.695Z,22.72
2023-06-21T02:22:40.428Z,22.71
2023-06-21T02:25:07.270Z,22.69
2023-06-21T02:27:33.936Z,22.65
2023-06-21T02:30:00.570Z,22.62
2023-06-21T02:32:27.198Z,22.65
2023-06-21T02:34:53.950Z,22.68
2023-06-21T02:37:20.599Z,22.61
2023-06-21T02:39:49.161Z,22.64
2023-06-21T02:42:18.277Z,22.68
2023-06-21T02:44:44.910Z,22.66
2023-06-21T02:47:11.659Z,22.72
2023-06-21T02:49:41.245Z,22.71
2023-06-21T02:52:09.325Z,22.64
2023-06-21T02:54:38.902Z,22.63
2023-06-21T02:57:05.998Z,22.59
2023-06-21T02:59:32.610Z,22.57
2023-06-21T03:02:00.908Z,22.52
2023-06-21T03:04:27.520Z,22.49
2023-06-21T03:06:54.173Z,22.46
2023-06-21T03:09:20.809Z,22.44
2023-06-21T03:11:48.555Z,22.41
2023-06-21T03:14:15.540Z,22.40
2023-06-21T03:16:42.534Z,22.38
2023-06-21T03:19:09.515Z,22.37
2023-06-21T03:21:36.324Z,22.43
2023-06-21T03:24:04.826Z,22.42
2023-06-21T03:26:33.747Z,22.38
2023-06-21T03:29:01.361Z,22.36
2023-06-21T03:31:28.481Z,22.37
2023-06-21T03:33:55.597Z,22.46
2023-06-21T03:36:22.442Z,22.48
2023-06-21T03:38:49.107Z,22.53
2023-06-21T03:41:15.820Z,22.58
2023-06-21T03:43:42.551Z,22.56
2023-06-21T03:46:12.500Z,22.55
2023-06-21T03:48:40.164Z,22.55
2023-06-21T03:51:06.914Z,22.52
2023-06-21T03:53:33.514Z,22.49
2023-06-21T03:56:00.152Z,22.40
2023-06-21T03:58:26.802Z,22.40
2023-06-21T04:00:53.506Z,22.39
2023-06-21T04:03:20.309Z,22.36
2023-06-21T04:05:46.923Z,22.33
2023-06-21T04:08:13.554Z,22.34
2023-06-21T04:10:40.198Z,22.30
2023-06-21T04:13:06.843Z,22.26
2023-06-21T04:15:34.338Z,22.26
2023-06-21T04:18:01.088Z,22.23
2023-06-21T04:20:28.013Z,22.19
2023-06-21T04:22:54.793Z,22.16
2023-06-21T04:25:21.548Z,22.17
2023-06-21T04:27:48.142Z,22.21
2023-06-21T04:30:15.292Z,22.18
2023-06-21T04:32:50.936Z,22.16
2023-06-21T04:35:18.871Z,22.18
2023-06-21T04:37:47.385Z,22.18
2023-06-21T04:40:20.072Z,22.21
2023-06-21T04:42:48.010Z,22.23
2023-06-21T04:45:16.079Z,22.21
2023-06-21T04:47:43.682Z,22.25
2023-06-21T04:52:48.996Z,22.42
2023-06-21T04:55:24.816Z,22.51
2023-06-21T04:57:51.943Z,22.65
2023-06-21T05:00:19.549Z,22.76
2023-06-21T05:02:48.417Z,22.88
2023-06-21T05:05:15.431Z,22.97
2023-06-21T05:07:42.265Z,23.07
2023-06-21T05:10:10.527Z,23.21
2023-06-21T05:12:37.491Z,23.28
2023-06-21T05:15:06.451Z,23.36
2023-06-21T05:17:33.981Z,23.41
2023-06-21T05:20:00.731Z,23.45
2023-06-21T05:22:27.440Z,23.50
2023-06-21T05:24:54.116Z,23.56
2023-06-21T05:27:21.001Z,23.59
2023-06-21T05:29:47.924Z,23.61
2023-06-21T05:32:14.956Z,23.68
2023-06-21T05:34:41.655Z,23.72
2023-06-21T05:37:08.353Z,23.73
2023-06-21T05:39:37.925Z,23.75
2023-06-21T05:42:05.005Z,23.76
2023-06-21T05:44:32.290Z,23.82
2023-06-21T05:46:59.015Z,23.85
2023-06-21T05:49:25.703Z,23.82
2023-06-21T05:51:52.414Z,23.78
2023-06-21T05:54:19.058Z,23.78
2023-06-21T05:56:45.925Z,23.79
2023-06-21T05:59:12.692Z,23.84
2023-06-21T06:01:42.009Z,23.95
2023-06-21T06:04:08.920Z,24.23
2023-06-21T06:06:38.430Z,24.33
2023-06-21T06:09:05.696Z,24.40
2023-06-21T06:11:32.441Z,24.52
2023-06-21T06:13:59.414Z,24.62
2023-06-21T06:16:26.212Z,24.61
2023-06-21T06:18:54.476Z,24.62
2023-06-21T06:21:22.875Z,24.76
2023-06-21T06:23:51.424Z,24.87
2023-06-21T06:26:27.725Z,25.06
2023-06-21T06:28:55.526Z,25.22
2023-06-21T06:31:24.746Z,25.45
2023-06-21T06:33:52.041Z,25.61
2023-06-21T06:36:19.063Z,25.81
2023-06-21T06:38:52.514Z,26.06
2023-06-21T06:41:19.314Z,26.26
2023-06-21T06:43:46.836Z,26.53
2023-06-21T06:46:13.667Z,26.72
2023-06-21T06:48:40.274Z,26.94
2023-06-21T06:51:09.352Z,27.14
2023-06-21T06:53:35.985Z,27.36
2023-06-21T06:56:02.626Z,27.47
2023-06-21T06:58:29.982Z,27.70
2023-06-21T07:00:56.811Z,27.88
2023-06-21T07:03:23.765Z,28.12
2023-06-21T07:05:50.607Z,28.34
2023-06-21T07:08:17.951Z,28.52
2023-06-21T07:10:44.769Z,28.70
2023-06-21T07:13:11.459Z,28.90
2023-06-21T07:15:40.646Z,29.08
2023-06-21T07:18:07.384Z,29.28
2023-06-21T07:20:37.393Z,29.44
2023-06-21T07:23:04.455Z,29.63
2023-06-21T07:25:31.552Z,29.86
2023-06-21T07:27:58.337Z,30.01
2023-06-21T07:30:25.445Z,30.18
2023-06-21T07:32:52.551Z,30.29
2023-06-21T07:35:19.458Z,30.41
2023-06-21T07:37:47.014Z,30.53
2023-06-21T07:40:14.435Z,30.65
2023-06-21T07:42:41.483Z,30.74
2023-06-21T07:45:09.198Z,30.92
2023-06-21T07:47:36.229Z,31.13
2023-06-21T07:50:20.412Z,31.32
2023-06-21T07:52:48.926Z,31.50
2023-06-21T07:55:15.648Z,31.63
2023-06-21T07:57:43.193Z,31.73
2023-06-21T08:00:13.586Z,31.79
2023-06-21T08:02:45.784Z,31.80
2023-06-21T08:05:15.505Z,31.83
2023-06-21T08:07:42.916Z,31.83
2023-06-21T08:10:10.515Z,31.79
2023-06-21T08:12:38.169Z,31.79
2023-06-21T08:15:06.508Z,31.84
2023-06-21T08:17:33.541Z,31.88
2023-06-21T08:20:00.374Z,31.92
2023-06-21T08:22:27.257Z,31.92
2023-06-21T08:24:56.696Z,31.87
2023-06-21T08:27:23.796Z,31.91
2023-06-21T08:29:52.736Z,31.95
2023-06-21T08:32:21.137Z,31.99
2023-06-21T08:34:51.639Z,32.03
2023-06-21T08:37:23.167Z,31.99
2023-06-21T08:39:50.603Z,31.96
2023-06-21T08:42:17.274Z,31.93
2023-06-21T08:44:43.888Z,31.88
2023-06-21T08:47:10.682Z,31.84
2023-06-21T08:49:42.175Z,31.74
2023-06-21T08:52:12.789Z,31.69
2023-06-21T08:54:43.948Z,31.64
2023-06-21T08:57:23.971Z,31.52
2023-06-21T09:00:20.108Z,31.38
2023-06-21T09:03:10.390Z,31.21
2023-06-21T09:05:37.231Z,31.09
2023-06-21T09:08:05.259Z,31.01
2023-06-21T09:10:35.385Z,30.91
2023-06-21T09:13:03.617Z,30.84
2023-06-21T09:15:31.035Z,30.72
2023-06-21T09:17:58.141Z,30.63
2023-06-21T09:20:30.326Z,30.51
2023-06-21T09:23:00.923Z,30.48
2023-06-21T09:25:28.705Z,30.42
2023-06-21T09:27:56.687Z,30.30
2023-06-21T09:30:38.603Z,30.26
2023-06-21T09:33:06.699Z,30.12
2023-06-21T09:35:34.125Z,30.05
2023-06-21T09:38:01.120Z,29.93
2023-06-21T09:40:27.801Z,29.89
2023-06-21T09:42:54.695Z,29.78
2023-06-21T09:45:21.780Z,29.70
2023-06-21T09:47:48.523Z,29.59
2023-06-21T09:50:15.295Z,29.53
2023-06-21T09:52:44.402Z,29.45
2023-06-21T09:55:17.680Z,29.41
2023-06-21T09:57:46.425Z,29.33
2023-06-21T10:00:14.136Z,29.29
2023-06-21T10:02:42.266Z,29.23
2023-06-21T10:05:19.945Z,29.23
2023-06-21T10:07:47.805Z,29.17
2023-06-21T10:10:15.075Z,29.17
2023-06-21T10:12:56.579Z,29.22
2023-06-21T10:15:24.283Z,29.22
2023-06-21T10:18:04.719Z,29.26
2023-06-21T10:20:32.946Z,29.35
2023-06-21T10:23:02.613Z,29.45
2023-06-21T10:25:30.540Z,29.52
2023-06-21T10:28:01.197Z,29.51
2023-06-21T10:30:29.151Z,29.51
2023-06-21T10:33:01.455Z,29.50
2023-06-21T10:35:29.553Z,29.50
2023-06-21T10:38:09.633Z,29.47
2023-06-21T10:40:37.445Z,29.43
2023-06-21T10:43:05.147Z,29.46
2023-06-21T10:45:34.671Z,29.47
2023-06-21T10:48:01.986Z,29.45
2023-06-21T10:50:29.637Z,29.44
2023-06-21T10:52:59.738Z,29.43
2023-06-21T10:55:29.259Z,29.42
2023-06-21T10:57:56.414Z,29.42
2023-06-21T11:00:25.299Z,29.46
2023-06-21T11:02:53.526Z,29.47
2023-06-21T11:05:23.958Z,29.49
2023-06-21T11:08:07.349Z,29.49
2023-06-21T11:10:36.694Z,29.52
2023-06-21T11:13:03.842Z,29.51
2023-06-21T11:15:32.489Z,29.51
2023-06-21T11:18:05.261Z,29.52
2023-06-21T11:20:35.007Z,29.54
2023-06-21T11:23:14.090Z,29.54
2023-06-21T11:25:50.186Z,29.56
2023-06-21T11:28:26.548Z,29.59
2023-06-21T11:31:05.058Z,29.62
2023-06-21T11:33:44.514Z,29.65
2023-06-21T11:36:11.524Z,29.67
2023-06-21T11:38:38.987Z,29.68
2023-06-21T11:41:41.733Z,29.71
2023-06-21T11:44:29.571Z,29.73
2023-06-21T11:47:17.224Z,29.77
2023-06-21T11:49:50.018Z,29.78
2023-06-21T11:52:22.742Z,29.82
2023-06-21T11:54:49.413Z,29.85
2023-06-21T11:57:16.107Z,29.88
2023-06-21T11:59:44.649Z,29.92
2023-06-21T12:02:24.522Z,29.96
2023-06-21T12:04:51.745Z,29.99
2023-06-21T12:07:19.265Z,29.96
2023-06-21T12:09:54.524Z,29.99
2023-06-21T12:12:26.754Z,30.01
2023-06-21T12:14:53.851Z,30.00
2023-06-21T12:17:20.596Z,30.00
2023-06-21T12:19:47.330Z,30.01
2023-06-21T12:22:15.583Z,30.00
2023-06-21T12:24:45.399Z,30.03
2023-06-21T12:27:15.545Z,30.03
2023-06-21T12:29:52.928Z,30.04
2023-06-21T12:32:21.649Z,30.06
2023-06-21T12:34:52.270Z,30.10
2023-06-21T12:37:20.533Z,30.10
2023-06-21T12:39:54.790Z,30.14
2023-06-21T12:42:22.059Z,30.12
2023-06-21T12:44:57.129Z,30.15
2023-06-21T12:47:23.898Z,30.19
2023-06-21T12:49:53.275Z,30.23
2023-06-21T12:52:26.982Z,30.24
2023-06-21T12:54:55.893Z,30.26
2023-06-21T12:57:37.460Z,30.28
2023-06-21T13:00:04.535Z,30.30
2023-06-21T13:02:31.398Z,30.27
2023-06-21T13:04:59.259Z,30.27
2023-06-21T13:07:27.889Z,30.31
2023-06-21T13:09:54.851Z,30.35
2023-06-21T13:12:21.548Z,30.38
2023-06-21T13:14:48.241Z,30.39
2023-06-21T13:17:17.514Z,30.41
2023-06-21T13:19:44.766Z,30.41
2023-06-21T13:22:11.570Z,30.46
2023-06-21T13:24:38.337Z,30.47
2023-06-21T13:27:05.141Z,30.49
2023-06-21T13:29:31.892Z,30.51
2023-06-21T13:31:58.848Z,30.49
2023-06-21T13:34:25.632Z,30.50
2023-06-21T13:36:52.280Z,30.53
2023-06-21T13:39:19.800Z,30.57
2023-06-21T13:41:46.491Z,30.59
2023-06-21T13:44:13.191Z,30.62
2023-06-21T13:46:39.927Z,30.65
2023-06-21T13:49:09.340Z,30.66
2023-06-21T13:51:37.499Z,30.68
2023-06-21T13:54:04.322Z,30.70
2023-06-21T13:56:31.005Z,30.72
2023-06-21T13:58:57.644Z,30.76
2023-06-21T14:01:24.453Z,30.78
2023-06-21T14:03:51.446Z,30.80
2023-06-21T14:06:18.365Z,30.81
2023-06-21T14:08:47.208Z,30.80
2023-06-21T14:11:13.997Z,30.81
2023-06-21T14:13:40.699Z,30.82
2023-06-21T14:16:07.440Z,30.84
2023-06-21T14:18:46.313Z,30.82
2023-06-21T14:21:13.587Z,30.83
2023-06-21T14:23:40.299Z,30.84
2023-06-21T14:26:06.971Z,30.82
2023-06-21T14:28:35.017Z,30.81
2023-06-21T14:31:02.173Z,30.82
2023-06-21T14:33:28.953Z,30.80
2023-06-21T14:35:55.820Z,30.82
2023-06-21T14:38:22.606Z,30.81
2023-06-21T14:40:49.345Z,30.82
2023-06-21T14:43:16.032Z,30.81
2023-06-21T14:45:42.724Z,30.80
2023-06-21T14:48:10.349Z,30.81
2023-06-21T14:50:39.794Z,30.80
2023-06-21T14:53:07.008Z,30.78
2023-06-21T14:55:33.613Z,30.77
2023-06-21T14:58:00.466Z,30.77
2023-06-21T15:00:27.332Z,30.74
2023-06-21T15:02:54.330Z,30.72
2023-06-21T15:05:21.076Z,30.71
2023-06-21T15:07:47.913Z,30.70
2023-06-21T15:10:14.636Z,30.69
2023-06-21T15:12:56.289Z,30.66
2023-06-21T15:15:27.504Z,30.66
2023-06-21T15:17:55.721Z,30.63
2023-06-21T15:20:22.425Z,30.63
2023-06-21T15:22:49.136Z,30.61
2023-06-21T15:25:15.881Z,30.58
2023-06-21T15:27:42.489Z,30.54
2023-06-21T15:30:09.766Z,30.52
2023-06-21T15:32:36.483Z,30.50
2023-06-21T15:35:03.249Z,30.46
2023-06-21T15:37:29.985Z,30.44
2023-06-21T15:39:57.538Z,30.40
2023-06-21T15:42:24.402Z,30.37
2023-06-21T15:44:51.308Z,30.32
2023-06-21T15:47:18.061Z,30.30
2023-06-21T15:49:44.829Z,30.29
2023-06-21T15:52:11.481Z,30.24
2023-06-21T15:54:38.246Z,30.20
2023-06-21T15:57:05.199Z,30.16
2023-06-21T15:59:31.872Z,30.12
2023-06-21T16:01:59.290Z,30.10
2023-06-21T16:04:26.291Z,30.05
2023-06-21T16:06:53.037Z,29.99
2023-06-21T16:09:23.398Z,29.87
2023-06-21T16:11:50.713Z,29.83
2023-06-21T16:14:17.422Z,29.81
2023-06-21T16:16:44.077Z,29.79
2023-06-21T16:19:12.547Z,29.75
2023-06-21T16:21:39.404Z,29.74
2023-06-21T16:24:06.342Z,29.63
2023-06-21T16:26:33.193Z,29.50
2023-06-21T16:28:59.886Z,29.40
2023-06-21T16:31:26.641Z,29.27
2023-06-21T16:33:53.382Z,29.19
2023-06-21T16:36:21.037Z,29.18
2023-06-21T16:38:47.672Z,29.06
2023-06-21T16:41:14.416Z,29.02
2023-06-21T16:43:41.075Z,28.91
2023-06-21T16:46:07.878Z,28.85
2023-06-21T16:48:34.553Z,28.81
2023-06-21T16:51:01.235Z,28.72
2023-06-21T16:53:27.981Z,28.67
2023-06-21T16:55:54.760Z,28.62
2023-06-21T16:58:21.568Z,28.57
2023-06-21T17:00:48.244Z,28.52
2023-06-21T17:03:15.012Z,28.48
2023-06-21T17:05:42.109Z,28.45
2023-06-21T17:08:08.964Z,28.42
2023-06-21T17:10:35.656Z,28.37
2023-06-21T17:13:02.468Z,28.34
2023-06-21T17:15:32.700Z,28.38
2023-06-21T17:17:59.418Z,28.33
2023-06-21T17:20:26.145Z,28.29
2023-06-21T17:22:52.797Z,28.12
2023-06-21T17:25:19.480Z,27.92
2023-06-21T17:27:46.156Z,27.71
2023-06-21T17:30:24.694Z,27.38
2023-06-21T17:32:54.024Z,27.07
2023-06-21T17:35:20.750Z,26.66
2023-06-21T17:37:49.642Z,26.40
2023-06-21T17:40:16.464Z,26.05
2023-06-21T17:42:43.112Z,25.62
2023-06-21T17:45:10.209Z,25.26
2023-06-21T17:47:37.034Z,25.02
2023-06-21T17:50:04.114Z,24.82
2023-06-21T17:52:32.142Z,24.70
2023-06-21T17:54:58.816Z,24.65
2023-06-21T17:57:25.878Z,24.61
2023-06-21T17:59:52.620Z,24.52
2023-06-21T18:02:20.232Z,24.42
2023-06-21T18:04:47.583Z,24.37
2023-06-21T18:07:15.799Z,24.23
2023-06-21T18:09:42.405Z,24.15
2023-06-21T18:12:10.934Z,24.11
2023-06-21T18:14:37.656Z,24.07
2023-06-21T18:17:04.593Z,23.93
2023-06-21T18:19:31.295Z,23.90
2023-06-21T18:22:11.465Z,23.87
2023-06-21T18:24:39.676Z,23.84
2023-06-21T18:27:08.144Z,23.72
2023-06-21T18:29:34.901Z,23.64
2023-06-21T18:32:02.200Z,23.62
2023-06-21T18:34:28.867Z,23.62
2023-06-21T18:36:55.450Z,23.69
2023-06-21T18:39:22.137Z,23.70
2023-06-21T18:41:48.981Z,23.49
2023-06-21T18:44:15.828Z,23.32
2023-06-21T18:46:42.491Z,23.16
2023-06-21T18:49:09.156Z,23.09
2023-06-21T18:51:35.891Z,23.06
2023-06-21T18:54:02.679Z,23.02
2023-06-21T18:56:29.378Z,23.05
2023-06-21T18:58:56.218Z,22.98
2023-06-21T19:01:26.181Z,23.04
2023-06-21T19:03:57.481Z,23.11
2023-06-21T19:06:25.116Z,23.12
2023-06-21T19:08:51.758Z,23.12
2023-06-21T19:11:18.402Z,23.06
2023-06-21T19:13:47.871Z,23.04
2023-06-21T19:16:15.010Z,22.88
2023-06-21T19:18:42.530Z,22.92
2023-06-21T19:21:09.241Z,22.92
2023-06-21T19:23:36.071Z,22.94
2023-06-21T19:26:02.698Z,22.89
2023-06-21T19:28:29.562Z,22.88
2023-06-21T19:30:56.472Z,22.80
2023-06-21T19:33:23.329Z,22.73
2023-06-21T19:35:49.939Z,22.69
2023-06-21T19:38:16.535Z,22.66
2023-06-21T19:40:44.853Z,22.64
2023-06-21T19:43:12.485Z,22.64
2023-06-21T19:45:39.463Z,22.61
2023-06-21T19:48:07.789Z,22.64
2023-06-21T19:50:34.665Z,22.64
2023-06-21T19:53:01.589Z,22.68
2023-06-21T19:55:28.274Z,22.69
2023-06-21T19:57:54.966Z,22.69
2023-06-21T20:00:24.829Z,22.74
2023-06-21T20:02:51.928Z,22.79
2023-06-21T20:05:21.611Z,22.77
2023-06-21T20:07:48.358Z,22.74
2023-06-21T20:10:14.983Z,22.72
2023-06-21T20:12:41.657Z,22.72
2023-06-21T20:15:08.922Z,22.70
2023-06-21T20:17:38.094Z,22.71
2023-06-21T20:20:07.946Z,22.74
2023-06-21T20:22:34.596Z,22.74
2023-06-21T20:25:02.048Z,22.75
2023-06-21T20:27:28.757Z,22.76
2023-06-21T20:29:55.350Z,22.78
2023-06-21T20:32:22.136Z,22.75
2023-06-21T20:34:48.822Z,22.71
2023-06-21T20:37:15.446Z,22.84
2023-06-21T20:39:42.239Z,22.85
2023-06-21T20:42:09.178Z,22.88
2023-06-21T20:44:37.963Z,22.87
2023-06-21T20:47:06.706Z,22.88
2023-06-21T20:49:33.758Z,22.89
2023-06-21T20:52:00.662Z,22.88
2023-06-21T20:54:27.354Z,22.92
2023-06-21T20:56:54.017Z,22.85
2023-06-21T20:59:21.144Z,22.78
2023-06-21T21:01:52.054Z,22.71
2023-06-21T21:04:19.204Z,22.65
2023-06-21T21:06:46.401Z,22.54
2023-06-21T21:09:13.331Z,22.47
2023-06-21T21:11:40.417Z,22.38
2023-06-21T21:14:07.055Z,22.33
2023-06-21T21:16:33.704Z,22.27
2023-06-21T21:19:00.324Z,22.22
2023-06-21T21:21:27.229Z,22.21
2023-06-21T21:23:55.182Z,22.19
2023-06-21T21:26:21.884Z,22.17
2023-06-21T21:28:48.554Z,22.10
2023-06-21T21:31:15.268Z,22.06
2023-06-21T21:33:42.142Z,22.05
2023-06-21T21:36:08.873Z,22.01
2023-06-21T21:38:35.675Z,21.93
2023-06-21T21:41:02.353Z,21.89
2023-06-21T21:43:29.043Z,21.90
2023-06-21T21:45:55.711Z,21.94
2023-06-21T21:48:22.385Z,21.92
2023-06-21T21:50:49.101Z,21.94
2023-06-21T21:53:15.778Z,22.03
2023-06-21T21:55:42.779Z,22.07
2023-06-21T21:58:10.604Z,22.14
2023-06-21T22:00:37.728Z,22.15
2023-06-21T22:03:04.608Z,22.17
2023-06-21T22:05:31.394Z,22.16
2023-06-21T22:07:58.077Z,22.16
2023-06-21T22:10:36.534Z,22.15
2023-06-21T22:13:05.333Z,22.11
2023-06-21T22:15:32.171Z,22.05
2023-06-21T22:17:58.978Z,21.95
2023-06-21T22:20:25.752Z,21.93
2023-06-21T22:22:52.565Z,22.00
2023-06-21T22:25:19.242Z,22.01
2023-06-21T22:27:45.964Z,22.03
2023-06-21T22:30:12.703Z,22.01
2023-06-21T22:32:39.451Z,21.94
2023-06-21T22:35:06.692Z,21.95
2023-06-21T22:37:37.324Z,21.98
2023-06-21T22:40:06.237Z,22.00
2023-06-21T22:42:33.138Z,22.01
2023-06-21T22:44:59.790Z,22.00
2023-06-21T22:47:26.429Z,22.00
2023-06-21T22:49:56.815Z,22.04
2023-06-21T22:52:24.842Z,22.06
2023-06-21T22:54:51.642Z,22.04
2023-06-21T22:57:18.390Z,22.03
2023-06-21T22:59:44.975Z,22.04
2023-06-21T23:02:11.596Z,22.04
2023-06-21T23:04:38.412Z,22.08
2023-06-21T23:07:05.366Z,22.09
2023-06-21T23:09:33.354Z,22.13
2023-06-21T23:11:59.961Z,22.14
2023-06-21T23:14:26.636Z,22.08
2023-06-21T23:16:53.278Z,22.11
2023-06-21T23:19:20.202Z,22.09
2023-06-21T23:21:47.835Z,22.04
2023-06-21T23:24:14.749Z,22.02
2023-06-21T23:26:42.427Z,22.01
2023-06-21T23:29:12.251Z,21.95
2023-06-21T23:31:39.984Z,21.85
2023-06-21T23:34:07.089Z,21.79
2023-06-21T23:36:34.793Z,21.80
2023-06-21T23:39:04.938Z,21.79
2023-06-21T23:41:31.877Z,21.80
2023-06-21T23:44:06.236Z,21.79
2023-06-21T23:46:33.573Z,21.73
2023-06-21T23:49:03.076Z,21.75
2023-06-21T23:51:33.611Z,21.68
2023-06-21T23:54:00.355Z,21.65
2023-06-21T23:56:27.838Z,21.65
2023-06-21T23:58:54.856Z,21.57
